Terminal Aerodrome Forecast
Issued by NWS

Home | Current Version | Previous Version | Text Only | Print | Product List | Glossary On
Versions: 1 2 3 4 5 6 7 8 9 10 11 12 13
000
FTAK31 PAJN 111700
TAFAPG
TAF
PAPG 111737Z 1118/1218 06005KT P6SM SCT120 BKN220
     FM112100 06005KT P6SM FEW025 BKN120 OVC200
     FM120700 VRB03KT P6SM SCT005 BKN070
      AMD LTD TO CLD VIS AND WIND 1206/1215=

USA.gov is the U.S. government's official web portal to all federal, state and local government web resources and services.